createdAt,value
2023-01-04T00:00:30.016Z,101266.44
2023-01-04T00:05:34.278Z,101271.63
2023-01-04T00:10:37.300Z,101275.06
2023-01-04T00:15:40.168Z,101273.31
2023-01-04T00:20:44.447Z,101276.78
2023-01-04T00:25:47.351Z,101262.88
2023-01-04T00:30:50.197Z,101268.94
2023-01-04T00:35:54.465Z,101269.81
2023-01-04T00:40:59.267Z,101292.34
2023-01-04T00:46:06.969Z,101294.94
2023-01-04T00:51:11.242Z,101292.34
2023-01-04T00:56:14.085Z,101327.03
2023-01-04T01:01:17.243Z,101353.00
2023-01-04T01:06:21.588Z,101323.53
2023-01-04T01:11:24.752Z,101359.06
2023-01-04T01:22:17.896Z,101368.59
2023-01-04T01:27:20.825Z,101399.75
2023-01-04T01:32:23.962Z,101393.66
2023-01-04T01:37:28.644Z,101408.38
2023-01-04T01:42:31.582Z,101400.50
2023-01-04T01:47:40.027Z,101410.78
2023-01-04T01:52:44.334Z,101398.50
2023-01-04T01:57:48.742Z,101400.06
2023-01-04T02:03:17.693Z,101386.00
2023-01-04T02:08:28.132Z,101380.69
2023-01-04T02:13:46.417Z,101337.06
2023-01-04T02:18:57.344Z,101303.94
2023-01-04T02:24:20.378Z,101289.84
2023-01-04T02:30:04.995Z,101250.59
2023-01-04T02:35:16.120Z,101211.94
2023-01-04T02:40:24.524Z,101136.94
2023-01-04T02:45:33.254Z,101103.63
2023-01-04T02:50:40.901Z,101087.91
2023-01-04T02:55:52.860Z,101068.69
2023-01-04T03:01:21.191Z,101068.69
2023-01-04T03:06:29.455Z,101062.50
2023-01-04T03:11:54.557Z,101025.38
2023-01-04T03:16:57.610Z,101086.91
2023-01-04T03:22:02.808Z,101032.88
2023-01-04T03:27:21.499Z,101023.31
2023-01-04T03:32:46.035Z,101029.38
2023-01-04T03:38:14.690Z,101023.19
2023-01-04T03:43:36.800Z,101003.03
2023-01-04T03:48:43.299Z,101004.75
2023-01-04T03:53:52.974Z,100983.97
2023-01-04T03:58:56.035Z,100995.22
2023-01-04T04:04:16.501Z,100969.13
2023-01-04T04:09:20.981Z,100970.03
2023-01-04T04:14:24.123Z,100973.56
2023-01-04T04:19:26.989Z,100980.63
2023-01-04T04:24:31.347Z,100956.94
2023-01-04T04:29:34.334Z,100956.84
2023-01-04T04:34:37.467Z,100949.78
2023-01-04T04:39:41.745Z,100951.53
2023-01-04T04:44:44.578Z,100914.81
2023-01-04T04:49:47.474Z,100909.44
2023-01-04T04:54:51.731Z,100896.44
2023-01-04T04:59:54.659Z,100878.16
2023-01-04T05:04:57.542Z,100871.31
2023-01-04T05:10:03.462Z,100860.16
2023-01-04T05:15:09.527Z,100859.19
2023-01-04T05:20:12.893Z,100850.56
2023-01-04T05:25:17.442Z,100836.69
2023-01-04T05:30:40.259Z,100826.13
2023-01-04T05:35:43.151Z,100857.38
2023-01-04T05:40:48.029Z,100893.94
2023-01-04T05:45:52.406Z,100905.22
2023-01-04T05:50:55.249Z,100936.34
2023-01-04T05:55:59.498Z,100932.00
2023-01-04T06:01:07.760Z,100924.94
2023-01-04T06:06:10.776Z,100907.53
2023-01-04T06:11:15.218Z,100901.38
2023-01-04T06:16:20.017Z,100905.88
2023-01-04T06:21:22.896Z,100892.94
2023-01-04T06:26:27.158Z,100885.25
2023-01-04T06:31:30.087Z,100853.06
2023-01-04T06:36:33.220Z,100867.66
2023-01-04T06:41:41.201Z,100873.72
2023-01-04T06:46:44.155Z,100877.13
2023-01-04T06:51:48.272Z,100865.06
2023-01-04T06:56:52.495Z,100857.41
2023-01-04T07:01:55.410Z,100859.25
2023-01-04T07:06:58.852Z,100873.19
2023-01-04T07:12:03.158Z,100845.34
2023-01-04T07:17:06.056Z,100852.38
2023-01-04T07:22:08.889Z,100852.44
2023-01-04T07:27:14.759Z,100861.06
2023-01-04T07:32:17.679Z,100836.97
2023-01-04T07:37:20.501Z,100861.34
2023-01-04T07:42:27.455Z,100886.59
2023-01-04T07:47:30.379Z,100904.03
2023-01-04T07:52:33.384Z,100902.31
2023-01-04T07:57:37.626Z,100933.66
2023-01-04T08:02:50.322Z,100945.81
2023-01-04T08:07:53.314Z,100999.88
2023-01-04T08:12:59.385Z,101032.09
2023-01-04T08:18:02.286Z,101055.69
2023-01-04T08:23:05.198Z,101081.88
2023-01-04T08:28:14.483Z,101095.81
2023-01-04T08:33:17.392Z,101120.25
2023-01-04T08:38:58.245Z,101147.22
2023-01-04T08:43:44.766Z,101148.91
2023-01-04T08:48:47.753Z,101168.78
2023-01-04T08:53:53.124Z,101189.59
2023-01-04T08:58:57.526Z,101200.00
2023-01-04T09:04:00.902Z,101189.47
2023-01-04T09:09:03.946Z,101199.84
2023-01-04T09:14:10.438Z,101203.22
2023-01-04T09:19:19.705Z,101197.00
2023-01-04T09:24:26.747Z,101187.41
2023-01-04T09:29:32.231Z,101176.91
2023-01-04T09:34:35.326Z,101177.75
2023-01-04T09:39:38.242Z,101161.19
2023-01-04T09:50:14.083Z,101092.16
2023-01-04T09:55:37.716Z,101052.00
2023-01-04T10:00:47.877Z,101023.19
2023-01-04T10:05:51.632Z,100986.56
2023-01-04T10:11:09.246Z,100942.09
2023-01-04T10:16:30.424Z,100937.34
2023-01-04T10:21:46.762Z,100885.06
2023-01-04T10:26:51.591Z,100877.94
2023-01-04T10:32:03.834Z,100882.22
2023-01-04T10:37:17.222Z,100868.91
2023-01-04T10:42:22.621Z,100845.91
2023-01-04T10:47:34.026Z,100844.97
2023-01-04T10:52:39.255Z,100839.03
2023-01-04T10:57:45.153Z,100816.53
2023-01-04T11:02:54.880Z,100819.47
2023-01-04T11:08:03.592Z,100819.84
2023-01-04T11:13:07.142Z,100826.97
2023-01-04T11:18:15.137Z,100818.09
2023-01-04T11:23:19.719Z,100810.16
2023-01-04T11:28:48.955Z,100827.94
2023-01-04T11:33:59.688Z,100848.31
2023-01-04T11:39:03.950Z,100838.53
2023-01-04T11:44:09.812Z,100820.88
2023-01-04T11:49:23.062Z,100831.13
2023-01-04T11:54:25.969Z,100824.97
2023-01-04T11:59:29.399Z,100820.47
2023-01-04T12:04:35.556Z,100806.44
2023-01-04T12:09:42.614Z,100790.75
2023-01-04T12:14:49.024Z,100793.22
2023-01-04T12:19:55.265Z,100792.38
2023-01-04T12:25:01.010Z,100776.78
2023-01-04T12:30:08.087Z,100791.72
2023-01-04T12:36:06.623Z,100785.53
2023-01-04T12:41:10.981Z,100802.97
2023-01-04T12:46:58.884Z,100801.16
2023-01-04T12:53:10.143Z,100813.91
2023-01-04T12:59:24.305Z,100811.19
2023-01-04T13:04:41.682Z,100820.75
2023-01-04T13:09:53.845Z,100813.09
2023-01-04T13:15:25.391Z,100840.81
2023-01-04T13:20:30.828Z,100823.47
2023-01-04T13:25:36.698Z,100826.38
2023-01-04T13:30:43.914Z,100832.53
2023-01-04T13:36:00.804Z,100835.16
2023-01-04T13:41:20.014Z,100821.28
2023-01-04T13:46:25.346Z,100806.44
2023-01-04T13:51:36.330Z,100814.09
2023-01-04T13:56:40.331Z,100792.09
2023-01-04T14:01:46.087Z,100801.63
2023-01-04T14:06:50.377Z,100778.41
2023-01-04T14:12:07.299Z,100741.34
2023-01-04T14:17:24.472Z,100784.56
2023-01-04T14:22:51.056Z,100770.78
2023-01-04T14:27:53.925Z,100769.13
2023-01-04T14:33:00.174Z,100770.03
2023-01-04T14:38:05.413Z,100788.19
2023-01-04T14:43:34.916Z,100808.22
2023-01-04T14:48:39.345Z,100795.28
2023-01-04T14:53:42.230Z,100803.16
2023-01-04T14:58:45.445Z,100792.75
2023-01-04T15:03:51.303Z,100818.81
2023-01-04T15:08:57.236Z,100802.22
2023-01-04T15:14:03.143Z,100828.34
2023-01-04T15:19:07.408Z,100825.03
2023-01-04T15:24:10.631Z,100826.16
2023-01-04T15:29:15.844Z,100835.75
2023-01-04T15:34:22.841Z,100852.84
2023-01-04T15:39:25.894Z,100845.75
2023-01-04T15:44:31.961Z,100838.94
2023-01-04T15:49:36.338Z,100848.91
2023-01-04T15:54:39.323Z,100867.41
2023-01-04T15:59:42.266Z,100877.75
2023-01-04T16:04:47.327Z,100874.47
2023-01-04T16:10:13.272Z,100880.31
2023-01-04T16:15:17.783Z,100890.69
2023-01-04T16:20:26.173Z,100892.78
2023-01-04T16:25:29.003Z,100872.31
2023-01-04T16:30:34.903Z,100866.31
2023-01-04T16:35:39.376Z,100870.69
2023-01-04T16:40:42.243Z,100865.34
2023-01-04T16:45:45.163Z,100877.34
2023-01-04T16:50:49.430Z,100883.63
2023-01-04T16:56:14.642Z,100893.56
2023-01-04T17:01:19.205Z,100890.19
2023-01-04T17:06:25.170Z,100929.06
2023-01-04T17:16:52.642Z,100921.06
2023-01-04T17:21:56.913Z,100931.69
2023-01-04T17:27:00.970Z,100942.16
2023-01-04T17:32:03.862Z,100948.19
2023-01-04T17:37:08.194Z,100962.16
2023-01-04T17:42:11.046Z,100976.06
2023-01-04T17:47:15.499Z,100988.34
2023-01-04T17:52:25.865Z,101000.50
2023-01-04T17:57:35.071Z,100996.13
2023-01-04T18:02:38.085Z,100983.16
2023-01-04T18:07:42.388Z,100993.53
2023-01-04T18:12:45.495Z,100966.78
2023-01-04T18:17:48.352Z,100988.50
2023-01-04T18:22:52.756Z,101011.22
2023-01-04T18:27:55.832Z,100989.53
2023-01-04T18:32:58.650Z,100986.16
2023-01-04T18:38:02.924Z,101000.16
2023-01-04T18:43:05.833Z,100980.00
2023-01-04T18:48:08.709Z,100963.53
2023-01-04T18:53:12.992Z,100965.25
2023-01-04T18:58:18.371Z,100946.31
2023-01-04T19:03:21.341Z,100963.84
2023-01-04T19:08:27.129Z,100963.91
2023-01-04T19:13:30.663Z,100976.31
2023-01-04T19:18:33.561Z,100966.84
2023-01-04T19:23:38.857Z,100976.47
2023-01-04T19:28:41.742Z,100985.16
2023-01-04T19:33:44.616Z,100975.66
2023-01-04T19:38:48.843Z,100979.75
2023-01-04T19:43:51.913Z,100992.78
2023-01-04T19:48:54.826Z,100993.84
2023-01-04T19:53:59.154Z,100995.53
2023-01-04T19:59:02.137Z,101011.91
2023-01-04T20:04:05.474Z,101004.88
2023-01-04T20:09:09.882Z,101017.75
2023-01-04T20:14:12.749Z,101015.03
2023-01-04T20:19:15.814Z,101048.94
2023-01-04T20:24:20.205Z,101050.44
2023-01-04T20:29:23.219Z,101067.09
2023-01-04T20:34:26.167Z,101081.22
2023-01-04T20:39:30.400Z,101078.69
2023-01-04T20:44:33.761Z,101095.88
2023-01-04T20:49:38.229Z,101093.34
2023-01-04T20:54:42.633Z,101103.00
2023-01-04T20:59:46.537Z,101103.88
2023-01-04T21:04:52.049Z,101129.09
2023-01-04T21:09:56.340Z,101111.75
2023-01-04T21:14:59.273Z,101116.00
2023-01-04T21:20:02.136Z,101144.69
2023-01-04T21:25:07.170Z,101137.78
2023-01-04T21:30:11.167Z,101152.31
2023-01-04T21:35:14.145Z,101157.38
2023-01-04T21:40:18.661Z,101169.50
2023-01-04T21:45:21.741Z,101175.53
2023-01-04T21:50:24.733Z,101183.47
2023-01-04T21:55:34.170Z,101188.66
2023-01-04T22:00:41.537Z,101202.50
2023-01-04T22:05:44.556Z,101199.91
2023-01-04T22:10:55.352Z,101205.13
2023-01-04T22:15:58.304Z,101200.03
2023-01-04T22:21:05.306Z,101216.56
2023-01-04T22:26:09.813Z,101224.31
2023-01-04T22:31:14.556Z,101232.06
2023-01-04T22:36:22.890Z,101231.22
2023-01-04T22:41:29.226Z,101253.78
2023-01-04T22:46:34.681Z,101248.63
2023-01-04T22:51:38.369Z,101267.06
2023-01-04T22:56:42.640Z,101272.41
2023-01-04T23:01:45.567Z,101281.28
2023-01-04T23:06:48.549Z,101273.63
2023-01-04T23:11:53.067Z,101264.16
2023-01-04T23:16:55.992Z,101265.19
2023-01-04T23:21:58.999Z,101267.06
2023-01-04T23:27:04.977Z,101271.47
2023-01-04T23:32:08.041Z,101271.56
2023-01-04T23:37:10.965Z,101278.50
2023-01-04T23:42:15.260Z,101272.56
2023-01-04T23:47:18.086Z,101283.94
2023-01-04T23:52:23.179Z,101283.09
2023-01-04T23:57:27.484Z,101274.41
